createdAt,value
2019-02-15T00:00:52.675Z,46.50
2019-02-15T00:03:22.794Z,55.73
2019-02-15T00:05:52.679Z,55.53
2019-02-15T00:08:22.557Z,52.53
2019-02-15T00:10:55.002Z,55.40
2019-02-15T00:13:27.402Z,46.67
2019-02-15T00:15:57.631Z,55.03
2019-02-15T00:18:36.703Z,60.43
2019-02-15T00:21:08.672Z,58.67
2019-02-15T00:23:38.504Z,60.47
2019-02-15T00:26:08.308Z,64.17
2019-02-15T00:28:38.151Z,55.50
2019-02-15T00:31:10.362Z,50.97
2019-02-15T00:33:40.146Z,51.73
2019-02-15T00:36:10.029Z,68.03
2019-02-15T00:38:39.880Z,52.33
2019-02-15T00:41:09.698Z,63.47
2019-02-15T00:43:40.345Z,57.27
2019-02-15T00:46:17.874Z,54.87
2019-02-15T00:48:47.730Z,55.83
2019-02-15T00:51:20.118Z,54.27
2019-02-15T00:54:00.538Z,57.03
2019-02-15T00:56:31.922Z,56.37
2019-02-15T00:59:21.548Z,58.10
2019-02-15T01:01:52.995Z,56.87
2019-02-15T01:04:24.407Z,66.77
2019-02-15T01:06:55.832Z,48.87
2019-02-15T01:09:27.311Z,50.10
2019-02-15T01:11:58.654Z,57.03
2019-02-15T01:14:28.548Z,62.50
2019-02-15T01:16:58.346Z,56.37
2019-02-15T01:19:28.234Z,50.87
2019-02-15T01:21:58.105Z,58.43
2019-02-15T01:24:27.928Z,66.07
2019-02-15T01:27:00.698Z,51.67
2019-02-15T01:29:34.844Z,59.43
2019-02-15T01:32:13.394Z,59.63
2019-02-15T01:34:53.832Z,52.47
2019-02-15T01:37:28.456Z,61.30
2019-02-15T01:40:06.038Z,64.60
2019-02-15T01:42:43.606Z,64.70
2019-02-15T01:45:20.909Z,55.37
2019-02-15T01:47:50.888Z,52.07
2019-02-15T01:50:22.052Z,53.70
2019-02-15T01:52:52.966Z,48.20
2019-02-15T01:55:23.828Z,61.10
2019-02-15T01:57:54.356Z,65.70
2019-02-15T02:00:25.850Z,49.73
2019-02-15T02:02:55.664Z,53.43
2019-02-15T02:05:25.452Z,42.20
2019-02-15T02:07:56.295Z,44.57
2019-02-15T02:10:26.998Z,47.47
2019-02-15T02:12:56.844Z,56.50
2019-02-15T02:15:26.670Z,52.00
2019-02-15T02:17:56.482Z,45.30
2019-02-15T02:20:26.357Z,60.70
2019-02-15T02:22:56.139Z,36.13
2019-02-15T02:25:25.989Z,36.00
2019-02-15T02:27:57.002Z,47.60
2019-02-15T02:30:26.836Z,54.93
2019-02-15T02:32:56.655Z,49.57
2019-02-15T02:35:26.523Z,57.10
2019-02-15T02:37:56.323Z,48.83
2019-02-15T02:40:26.174Z,44.60
2019-02-15T02:42:56.043Z,50.60
2019-02-15T02:45:25.849Z,61.37
2019-02-15T02:47:55.657Z,47.20
2019-02-15T02:50:25.483Z,54.43
2019-02-15T02:52:55.313Z,51.80
2019-02-15T02:55:25.156Z,54.77
2019-02-15T02:57:55.399Z,58.90
2019-02-15T03:00:33.177Z,45.40
2019-02-15T03:02:57.474Z,54.30
2019-02-15T03:05:27.287Z,46.60
2019-02-15T03:07:57.279Z,49.23
2019-02-15T03:10:27.153Z,54.10
2019-02-15T03:12:56.989Z,50.67
2019-02-15T03:15:26.895Z,47.37
2019-02-15T03:17:56.795Z,53.73
2019-02-15T03:20:31.432Z,44.97
2019-02-15T03:22:58.558Z,53.07
2019-02-15T03:25:29.739Z,44.13
2019-02-15T03:27:59.871Z,44.37
2019-02-15T03:30:29.672Z,43.93
2019-02-15T03:32:59.595Z,42.60
2019-02-15T03:35:29.466Z,33.87
2019-02-15T03:38:00.914Z,39.97
2019-02-15T03:40:32.335Z,46.20
2019-02-15T03:43:02.127Z,53.20
2019-02-15T03:45:32.178Z,52.60
2019-02-15T03:48:02.343Z,54.10
2019-02-15T03:50:32.189Z,50.43
2019-02-15T03:53:02.449Z,49.03
2019-02-15T03:55:32.451Z,64.50
2019-02-15T03:58:02.637Z,54.63
2019-02-15T04:00:32.687Z,47.80
2019-02-15T04:03:02.883Z,51.17
2019-02-15T04:05:32.693Z,49.90
2019-02-15T04:08:02.903Z,47.27
2019-02-15T04:10:32.742Z,44.80
2019-02-15T04:13:02.697Z,48.00
2019-02-15T04:15:32.507Z,43.87
2019-02-15T04:18:02.423Z,50.00
2019-02-15T04:20:32.239Z,44.87
2019-02-15T04:23:02.435Z,40.17
2019-02-15T04:25:32.278Z,39.67
2019-02-15T04:28:04.271Z,48.40
2019-02-15T04:30:35.701Z,47.17
2019-02-15T04:33:06.604Z,52.23
2019-02-15T04:35:36.961Z,48.70
2019-02-15T04:38:14.023Z,54.10
2019-02-15T04:40:46.857Z,55.23
2019-02-15T04:43:19.664Z,45.90
2019-02-15T04:45:52.341Z,36.63
2019-02-15T04:48:22.559Z,50.70
2019-02-15T04:50:53.871Z,41.63
2019-02-15T04:53:24.769Z,38.83
2019-02-15T04:55:54.592Z,35.40
2019-02-15T04:58:27.009Z,40.87
2019-02-15T05:00:56.840Z,48.93
2019-02-15T05:03:28.681Z,41.77
2019-02-15T05:06:00.656Z,42.67
2019-02-15T05:08:30.512Z,36.93
2019-02-15T05:11:00.418Z,38.07
2019-02-15T05:13:30.234Z,33.00
2019-02-15T05:16:00.048Z,34.63
2019-02-15T05:18:32.230Z,51.23
2019-02-15T05:21:02.462Z,44.43
2019-02-15T05:23:32.332Z,44.97
2019-02-15T05:26:02.162Z,43.67
2019-02-15T05:28:33.476Z,44.80
2019-02-15T05:31:07.432Z,41.80
2019-02-15T05:33:37.298Z,50.93
2019-02-15T05:36:09.109Z,39.27
2019-02-15T05:38:41.249Z,42.80
2019-02-15T05:41:11.765Z,43.80
2019-02-15T05:43:41.985Z,52.37
2019-02-15T05:46:13.303Z,39.43
2019-02-15T05:48:43.135Z,43.93
2019-02-15T05:51:14.170Z,43.27
2019-02-15T05:53:45.131Z,56.27
2019-02-15T05:56:16.454Z,49.97
2019-02-15T05:58:46.872Z,54.63
2019-02-15T06:01:18.905Z,52.17
2019-02-15T06:03:48.773Z,41.70
2019-02-15T06:06:18.670Z,56.83
2019-02-15T06:08:48.484Z,50.13
2019-02-15T06:11:20.896Z,47.60
2019-02-15T06:13:51.134Z,49.50
2019-02-15T06:16:22.519Z,50.17
2019-02-15T06:18:55.475Z,39.43
2019-02-15T06:21:25.327Z,47.23
2019-02-15T06:23:55.744Z,55.43
2019-02-15T06:26:26.478Z,49.63
2019-02-15T06:28:57.609Z,41.70
2019-02-15T06:31:32.456Z,44.90
2019-02-15T06:34:03.741Z,43.53
2019-02-15T06:36:35.485Z,50.67
2019-02-15T06:39:08.899Z,42.10
2019-02-15T06:41:40.654Z,49.57
2019-02-15T06:44:12.087Z,49.80
2019-02-15T06:46:42.009Z,59.10
2019-02-15T06:49:11.940Z,49.53
2019-02-15T06:51:41.770Z,44.27
2019-02-15T06:54:11.757Z,52.17
2019-02-15T06:56:41.593Z,46.30
2019-02-15T06:59:16.775Z,40.43
2019-02-15T07:01:50.845Z,40.67
2019-02-15T07:04:22.228Z,34.83
2019-02-15T07:06:52.254Z,48.93
2019-02-15T07:09:22.098Z,43.43
2019-02-15T07:11:51.947Z,51.40
2019-02-15T07:14:21.849Z,35.70
2019-02-15T07:16:51.799Z,40.23
2019-02-15T07:19:21.609Z,40.20
2019-02-15T07:21:53.485Z,38.80
2019-02-15T07:24:23.289Z,44.63
2019-02-15T07:26:57.349Z,28.77
2019-02-15T07:29:31.479Z,27.33
2019-02-15T07:32:03.469Z,26.73
2019-02-15T07:34:33.659Z,34.73
2019-02-15T07:37:06.877Z,32.13
2019-02-15T07:39:41.829Z,39.10
2019-02-15T07:42:11.693Z,37.60
2019-02-15T07:44:42.719Z,30.80
2019-02-15T07:47:14.024Z,37.27
2019-02-15T07:49:43.899Z,38.10
2019-02-15T07:52:17.541Z,28.73
2019-02-15T07:54:48.497Z,29.77
2019-02-15T07:57:19.419Z,42.70
2019-02-15T07:59:50.818Z,39.57
2019-02-15T08:02:21.235Z,31.97
2019-02-15T08:04:51.106Z,44.53
2019-02-15T08:07:21.069Z,32.73
2019-02-15T08:09:50.949Z,36.07
2019-02-15T08:12:22.530Z,39.60
2019-02-15T08:15:00.952Z,36.90
2019-02-15T08:17:39.153Z,29.70
2019-02-15T08:20:14.872Z,36.07
2019-02-15T08:22:45.381Z,34.03
2019-02-15T08:25:15.275Z,47.40
2019-02-15T08:30:38.112Z,35.43
2019-02-15T08:33:10.242Z,34.03
2019-02-15T08:35:51.042Z,31.23
2019-02-15T08:38:23.161Z,38.80
2019-02-15T08:41:12.196Z,33.80
2019-02-15T08:44:01.396Z,29.00
2019-02-15T08:46:33.542Z,27.03
2019-02-15T08:49:13.612Z,24.53
2019-02-15T08:51:58.510Z,30.80
2019-02-15T08:54:28.462Z,32.80
2019-02-15T08:56:59.833Z,27.07
2019-02-15T08:59:36.961Z,34.07
2019-02-15T09:02:14.857Z,29.03
2019-02-15T09:04:47.287Z,24.57
2019-02-15T09:07:27.996Z,28.50
2019-02-15T09:10:01.691Z,33.67
2019-02-15T09:12:31.594Z,33.73
2019-02-15T09:15:26.433Z,32.07
2019-02-15T09:18:11.544Z,26.40
2019-02-15T09:20:41.406Z,28.57
2019-02-15T09:23:12.305Z,22.20
2019-02-15T09:25:43.484Z,19.10
2019-02-15T09:28:17.304Z,20.17
2019-02-15T09:30:49.239Z,22.63
2019-02-15T09:33:19.086Z,41.57
2019-02-15T09:35:50.206Z,31.10
2019-02-15T09:38:20.040Z,24.37
2019-02-15T09:40:49.852Z,25.70
2019-02-15T09:43:22.907Z,30.23
2019-02-15T09:45:55.699Z,29.87
2019-02-15T09:48:28.364Z,22.93
2019-02-15T09:51:03.086Z,20.87
2019-02-15T09:53:37.046Z,24.40
2019-02-15T09:56:10.548Z,23.07
2019-02-15T09:58:42.396Z,23.97
2019-02-15T10:01:20.455Z,24.57
2019-02-15T10:03:55.310Z,32.30
2019-02-15T10:06:26.784Z,34.27
2019-02-15T10:09:00.374Z,30.67
2019-02-15T10:11:32.246Z,27.17
2019-02-15T10:14:12.536Z,33.27
2019-02-15T10:16:44.537Z,30.10
2019-02-15T10:19:22.168Z,26.13
2019-02-15T10:21:47.834Z,26.43
2019-02-15T10:24:20.351Z,33.30
2019-02-15T10:26:52.026Z,32.47
2019-02-15T10:29:23.850Z,27.40
2019-02-15T10:31:59.954Z,21.63
2019-02-15T10:34:32.279Z,24.63
2019-02-15T10:37:06.158Z,28.63
2019-02-15T10:39:36.658Z,24.53
2019-02-15T10:42:09.401Z,22.83
2019-02-15T10:44:42.745Z,21.27
2019-02-15T10:47:24.751Z,28.53
2019-02-15T10:49:57.511Z,29.70
2019-02-15T10:52:30.262Z,26.17
2019-02-15T10:55:02.193Z,25.67
2019-02-15T10:57:40.929Z,29.33
2019-02-15T11:00:28.967Z,28.00
2019-02-15T11:03:02.735Z,18.27
2019-02-15T11:05:34.932Z,24.77
2019-02-15T11:08:09.563Z,24.23
2019-02-15T11:10:42.627Z,25.90
2019-02-15T11:13:14.638Z,22.23
2019-02-15T11:15:49.947Z,20.37
2019-02-15T11:18:23.925Z,25.20
2019-02-15T11:20:56.743Z,18.37
2019-02-15T11:23:28.844Z,18.80
2019-02-15T11:26:04.602Z,17.07
2019-02-15T11:28:39.108Z,22.30
2019-02-15T11:31:16.856Z,25.20
2019-02-15T11:33:47.548Z,23.70
2019-02-15T11:36:27.315Z,16.57
2019-02-15T11:38:58.258Z,20.07
2019-02-15T11:41:35.759Z,22.63
2019-02-15T11:44:06.241Z,18.10
2019-02-15T11:46:37.404Z,20.37
2019-02-15T11:49:07.291Z,15.67
2019-02-15T11:51:42.229Z,20.23
2019-02-15T11:54:23.343Z,16.77
2019-02-15T11:56:52.060Z,15.97
2019-02-15T11:59:23.825Z,14.23
2019-02-15T12:02:06.886Z,19.43
2019-02-15T12:05:01.427Z,14.33
2019-02-15T12:07:35.930Z,15.33
2019-02-15T12:10:11.095Z,14.67
2019-02-15T12:12:47.683Z,15.70
2019-02-15T12:15:31.463Z,17.77
2019-02-15T12:18:07.422Z,13.83
2019-02-15T12:20:41.950Z,14.90
2019-02-15T12:23:13.759Z,11.63
2019-02-15T12:25:45.413Z,9.87
2019-02-15T12:28:23.545Z,12.00
2019-02-15T12:30:53.276Z,13.53
2019-02-15T12:33:25.483Z,16.30
2019-02-15T12:35:56.824Z,16.90
2019-02-15T12:38:26.709Z,16.00
2019-02-15T12:40:59.343Z,14.77
2019-02-15T12:43:33.717Z,13.97
2019-02-15T12:46:06.793Z,18.63
2019-02-15T12:48:37.029Z,14.63
2019-02-15T12:51:07.353Z,19.57
2019-02-15T12:53:39.961Z,17.53
2019-02-15T12:56:12.918Z,16.87
2019-02-15T12:58:44.390Z,13.53
2019-02-15T13:01:15.769Z,13.20
2019-02-15T13:03:47.765Z,15.73
2019-02-15T13:06:28.201Z,17.50
2019-02-15T13:08:58.333Z,17.53
2019-02-15T13:11:31.265Z,15.13
2019-02-15T13:14:01.131Z,14.67
2019-02-15T13:16:32.539Z,17.33
2019-02-15T13:19:03.720Z,17.17
2019-02-15T13:21:33.541Z,18.47
2019-02-15T13:24:03.488Z,20.27
2019-02-15T13:26:36.340Z,18.13
2019-02-15T13:29:11.035Z,20.10
2019-02-15T13:31:44.944Z,17.97
2019-02-15T13:34:16.363Z,12.53
2019-02-15T13:36:49.508Z,13.93
2019-02-15T13:39:21.410Z,12.40
2019-02-15T13:41:51.394Z,14.53
2019-02-15T13:44:21.271Z,14.83
2019-02-15T13:46:52.863Z,13.83
2019-02-15T13:49:24.154Z,15.03
2019-02-15T13:52:01.932Z,16.60
2019-02-15T13:54:35.806Z,17.90
2019-02-15T13:57:05.682Z,16.30
2019-02-15T13:59:41.207Z,23.63
2019-02-15T14:02:13.213Z,18.30
2019-02-15T14:04:46.729Z,13.33
2019-02-15T14:07:22.699Z,20.93
2019-02-15T14:09:53.865Z,16.43
2019-02-15T14:12:30.375Z,16.03
2019-02-15T14:15:02.206Z,13.97
2019-02-15T14:17:58.344Z,15.03
2019-02-15T14:20:33.303Z,22.40
2019-02-15T14:23:05.935Z,26.63
2019-02-15T14:25:40.976Z,25.57
2019-02-15T14:28:27.080Z,20.23
2019-02-15T14:31:01.226Z,17.63
2019-02-15T14:33:34.508Z,18.57
2019-02-15T14:36:08.395Z,21.97
2019-02-15T14:38:40.332Z,18.60
2019-02-15T14:41:18.141Z,20.77
2019-02-15T14:43:53.853Z,21.67
2019-02-15T14:46:26.613Z,23.03
2019-02-15T14:48:58.731Z,28.77
2019-02-15T14:51:37.304Z,31.93
2019-02-15T14:54:10.842Z,26.10
2019-02-15T14:56:51.408Z,20.93
2019-02-15T14:59:24.251Z,30.27
2019-02-15T15:01:56.814Z,24.73
2019-02-15T15:04:26.635Z,31.97
2019-02-15T15:07:02.168Z,21.87
2019-02-15T15:09:35.824Z,20.67
2019-02-15T15:12:11.563Z,18.50
2019-02-15T15:14:42.661Z,21.80
2019-02-15T15:17:12.587Z,20.27
2019-02-15T15:19:43.480Z,25.73
2019-02-15T15:22:18.599Z,20.33
2019-02-15T15:24:51.205Z,19.27
2019-02-15T15:27:22.655Z,23.33
2019-02-15T15:29:57.209Z,17.90
2019-02-15T15:32:28.725Z,16.37
2019-02-15T15:34:58.523Z,20.73
2019-02-15T15:37:30.876Z,25.87
2019-02-15T15:40:02.378Z,18.63
2019-02-15T15:42:37.508Z,18.57
2019-02-15T15:45:10.066Z,25.27
2019-02-15T15:47:42.937Z,23.10
2019-02-15T15:50:14.641Z,18.23
2019-02-15T15:52:45.070Z,16.40
2019-02-15T15:55:18.568Z,19.53
2019-02-15T15:57:49.204Z,21.40
2019-02-15T16:00:20.913Z,21.43
2019-02-15T16:02:52.225Z,21.57
2019-02-15T16:05:24.780Z,24.73
2019-02-15T16:08:03.925Z,20.00
2019-02-15T16:10:38.989Z,15.00
2019-02-15T16:13:10.832Z,14.07
2019-02-15T16:15:43.154Z,15.73
2019-02-15T16:18:15.575Z,18.47
2019-02-15T16:20:46.547Z,15.00
2019-02-15T16:23:21.697Z,12.33
2019-02-15T16:26:07.213Z,17.93
2019-02-15T16:28:53.996Z,19.50
2019-02-15T16:31:24.893Z,14.40
2019-02-15T16:33:56.468Z,18.40
2019-02-15T16:36:26.390Z,15.23
2019-02-15T16:39:03.140Z,18.47
2019-02-15T16:41:36.887Z,21.33
2019-02-15T16:44:13.809Z,19.87
2019-02-15T16:49:53.617Z,19.23
2019-02-15T16:52:34.802Z,22.13
2019-02-15T17:01:25.772Z,18.63
2019-02-15T17:04:04.281Z,19.43
2019-02-15T17:07:15.475Z,19.53
2019-02-15T17:12:54.811Z,21.33
2019-02-15T17:15:29.203Z,18.10
2019-02-15T17:18:06.532Z,20.07
2019-02-15T17:23:53.350Z,22.67
2019-02-15T17:29:51.854Z,25.80
2019-02-15T17:32:30.450Z,19.50
2019-02-15T17:38:08.935Z,21.07
2019-02-15T17:40:47.533Z,21.70
2019-02-15T17:43:19.025Z,21.37
2019-02-15T17:46:14.712Z,26.00
2019-02-15T17:48:50.999Z,20.60
2019-02-15T17:51:25.995Z,22.43
2019-02-15T17:54:19.032Z,25.10
2019-02-15T17:57:11.834Z,20.77
2019-02-15T17:59:54.114Z,22.47
2019-02-15T18:02:31.006Z,22.63
2019-02-15T18:05:20.172Z,28.00
2019-02-15T18:08:10.537Z,23.77
2019-02-15T18:10:51.329Z,22.77
2019-02-15T18:13:24.391Z,26.57
2019-02-15T18:16:00.973Z,29.67
2019-02-15T18:18:33.948Z,21.30
2019-02-15T18:21:13.054Z,26.97
2019-02-15T18:23:52.019Z,25.93
2019-02-15T18:27:21.245Z,30.60
2019-02-15T18:29:20.410Z,24.87
2019-02-15T18:31:59.816Z,30.23
2019-02-15T18:34:31.791Z,30.07
2019-02-15T18:37:36.805Z,32.13
2019-02-15T18:40:17.791Z,29.40
2019-02-15T18:43:03.163Z,32.23
2019-02-15T18:45:36.617Z,31.83
2019-02-15T18:48:09.436Z,35.63
2019-02-15T18:50:49.796Z,29.97
2019-02-15T18:53:21.874Z,34.73
2019-02-15T18:56:01.906Z,30.67
2019-02-15T18:58:35.063Z,29.47
2019-02-15T19:01:11.306Z,35.10
2019-02-15T19:03:43.096Z,33.37
2019-02-15T19:06:13.424Z,28.73
2019-02-15T19:08:47.494Z,32.00
2019-02-15T19:11:20.742Z,40.73
2019-02-15T19:13:55.194Z,34.57
2019-02-15T19:16:41.683Z,38.80
2019-02-15T19:19:17.953Z,44.50
2019-02-15T19:21:48.210Z,42.47
2019-02-15T19:24:25.446Z,35.03
2019-02-15T19:26:56.891Z,40.33
2019-02-15T19:29:30.604Z,41.03
2019-02-15T19:32:02.030Z,40.47
2019-02-15T19:34:33.705Z,39.13
2019-02-15T19:37:11.480Z,36.93
2019-02-15T19:39:48.175Z,38.90
2019-02-15T19:50:51.772Z,29.87
2019-02-15T19:53:22.720Z,37.90
2019-02-15T19:55:52.566Z,36.33
2019-02-15T19:58:24.709Z,37.87
2019-02-15T20:01:00.750Z,30.47
2019-02-15T20:03:31.239Z,33.97
2019-02-15T20:06:01.108Z,36.03
2019-02-15T20:08:31.772Z,37.53
2019-02-15T20:11:05.996Z,40.70
2019-02-15T20:13:41.343Z,45.00
2019-02-15T20:16:18.464Z,41.13
2019-02-15T20:19:19.835Z,45.80
2019-02-15T20:24:50.793Z,42.23
2019-02-15T20:27:21.802Z,38.53
2019-02-15T20:30:06.147Z,34.90
2019-02-15T20:33:05.271Z,28.23
2019-02-15T20:35:41.207Z,45.63
2019-02-15T20:38:14.056Z,30.13
2019-02-15T20:40:50.936Z,29.33
2019-02-15T20:43:22.890Z,26.40
2019-02-15T20:45:58.574Z,25.83
2019-02-15T20:48:30.203Z,32.83
2019-02-15T20:51:00.058Z,29.10
2019-02-15T20:53:35.280Z,29.13
2019-02-15T20:56:10.631Z,27.83
2019-02-15T20:58:44.676Z,28.03
2019-02-15T21:01:17.729Z,29.53
2019-02-15T21:03:54.710Z,33.57
2019-02-15T21:06:24.880Z,31.63
2019-02-15T21:08:56.545Z,31.63
2019-02-15T21:11:27.050Z,32.07
2019-02-15T21:14:01.050Z,32.57
2019-02-15T21:16:32.153Z,29.00
2019-02-15T21:19:03.905Z,33.40
2019-02-15T21:21:33.689Z,31.03
2019-02-15T21:24:08.290Z,34.47
2019-02-15T21:26:42.791Z,35.77
2019-02-15T21:29:16.758Z,34.97
2019-02-15T21:31:48.583Z,35.73
2019-02-15T21:34:19.201Z,33.30
2019-02-15T21:36:49.050Z,29.30
2019-02-15T21:39:23.557Z,35.63
2019-02-15T21:41:55.158Z,32.73
2019-02-15T21:44:32.000Z,32.03
2019-02-15T21:47:03.791Z,32.77
2019-02-15T21:50:17.414Z,38.50
2019-02-15T21:52:56.086Z,30.03
2019-02-15T21:58:38.464Z,28.70
2019-02-15T22:01:20.498Z,29.33
2019-02-15T22:03:56.384Z,26.97
2019-02-15T22:06:28.951Z,31.03
2019-02-15T22:09:04.227Z,29.03
2019-02-15T22:11:39.341Z,30.73
2019-02-15T22:14:13.126Z,30.00
2019-02-15T22:16:48.186Z,23.13
2019-02-15T22:19:19.919Z,28.33
2019-02-15T22:21:50.201Z,24.07
2019-02-15T22:27:12.436Z,23.90
2019-02-15T22:33:08.000Z,27.77
2019-02-15T22:35:43.445Z,26.50
2019-02-15T22:38:15.160Z,28.40
2019-02-15T22:40:50.990Z,30.43
2019-02-15T22:43:25.032Z,34.43
2019-02-15T22:45:59.496Z,30.30
2019-02-15T22:48:33.342Z,31.97
2019-02-15T22:51:07.159Z,30.93
2019-02-15T22:53:57.799Z,29.23
2019-02-15T22:57:21.291Z,27.17
2019-02-15T22:59:14.074Z,34.53
2019-02-15T23:01:50.772Z,32.37
2019-02-15T23:04:25.009Z,26.17
2019-02-15T23:07:02.604Z,28.73
2019-02-15T23:09:41.594Z,27.53
2019-02-15T23:12:20.141Z,27.17
2019-02-15T23:14:58.512Z,30.33
2019-02-15T23:17:37.708Z,31.30
2019-02-15T23:23:06.691Z,33.60
2019-02-15T23:25:46.939Z,32.03
2019-02-15T23:28:31.292Z,33.30
2019-02-15T23:31:02.759Z,30.80
2019-02-15T23:33:34.419Z,31.00
2019-02-15T23:36:05.381Z,33.83
2019-02-15T23:38:35.168Z,32.73
2019-02-15T23:41:06.957Z,36.03
2019-02-15T23:43:36.758Z,31.63
2019-02-15T23:46:07.675Z,32.13
2019-02-15T23:48:38.886Z,33.43
2019-02-15T23:51:09.384Z,33.80
2019-02-15T23:53:39.185Z,34.47
2019-02-15T23:56:10.683Z,31.87
2019-02-15T23:58:40.539Z,31.50
